Time;durP1;ratioP1;P1;durP2;ratioP2;P2;SDS_P1;SDS_P2;PMS_P1;PMS_P2;Temp;Humidity;BMP_temperature;BMP_pressure;BME280_temperature;BME280_humidity;BME280_pressure;Samples;Min_cycle;Max_cycle;Signal;HPM_P1;HPM_P2
2020/12/29 00:01:47;;;;;;;2.37;2.10;;;;;;;-1.16;100.00;100384.77;1761828;80;21005;-76
2020/12/29 00:04:20;;;;;;;1.98;1.30;;;;;;;-1.18;100.00;100387.14;1761941;81;21033;-76
2020/12/29 00:06:52;;;;;;;3.17;2.25;;;;;;;-1.18;100.00;100381.84;1763095;81;22110;-76
2020/12/29 00:09:24;;;;;;;3.60;2.25;;;;;;;-1.18;100.00;100373.39;1763853;81;21510;-77
2020/12/29 00:11:52;;;;;;;1.80;1.70;;;;;;;-1.19;100.00;100375.68;1784218;80;21032;-75
2020/12/29 00:14:20;;;;;;;2.50;2.17;;;;;;;-1.20;100.00;100373.11;1771869;81;21539;-76
2020/12/29 00:16:48;;;;;;;2.83;1.83;;;;;;;-1.22;100.00;100373.19;1760571;81;21042;-76
2020/12/29 00:19:21;;;;;;;2.17;1.87;;;;;;;-1.22;100.00;100366.56;1816765;78;21042;-76
2020/12/29 00:21:49;;;;;;;2.35;2.15;;;;;;;-1.22;100.00;100359.05;1818038;79;21387;-77
2020/12/29 00:24:17;;;;;;;2.77;2.20;;;;;;;-1.23;100.00;100360.01;1817346;79;20965;-74
2020/12/29 00:26:48;;;;;;;1.80;1.70;;;;;;;-1.25;100.00;100355.27;1813327;79;21403;-76
2020/12/29 00:29:15;;;;;;;1.30;1.20;;;;;;;-1.25;100.00;100361.90;1814932;79;21020;-76
2020/12/29 00:31:43;;;;;;;1.40;1.37;;;;;;;-1.26;100.00;100358.37;1814741;79;21187;-76
2020/12/29 00:34:11;;;;;;;2.27;2.07;;;;;;;-1.25;100.00;100368.05;1814738;79;21055;-76
2020/12/29 00:36:39;;;;;;;1.90;1.77;;;;;;;-1.25;100.00;100357.44;1814818;79;20906;-76
2020/12/29 00:39:07;;;;;;;3.57;2.20;;;;;;;-1.26;100.00;100336.30;1814722;79;20981;-75
2020/12/29 00:41:37;;;;;;;1.57;1.47;;;;;;;-1.27;100.00;100338.11;1814726;79;20988;-75
2020/12/29 00:44:04;;;;;;;2.53;2.33;;;;;;;-1.27;100.00;100339.43;1814666;79;21804;-76
2020/12/29 00:46:32;;;;;;;2.30;2.13;;;;;;;-1.27;100.00;100330.14;1814577;79;20992;-75
2020/12/29 00:49:00;;;;;;;3.70;2.37;;;;;;;-1.28;100.00;100335.05;1814633;79;20945;-76
2020/12/29 00:51:28;;;;;;;1.10;1.10;;;;;;;-1.28;100.00;100334.20;1814553;79;20985;-76
2020/12/29 00:54:01;;;;;;;3.83;2.30;;;;;;;-1.29;100.00;100335.14;1814603;79;20989;-76
2020/12/29 00:56:30;;;;;;;2.67;2.43;;;;;;;-1.31;100.00;100321.98;1788765;79;21196;-75
2020/12/29 00:58:58;;;;;;;2.93;2.27;;;;;;;-1.32;100.00;100340.16;1814603;79;21002;-76
2020/12/29 01:01:28;;;;;;;1.20;1.10;;;;;;;-1.34;100.00;100342.05;1814576;79;20969;-75
2020/12/29 01:04:25;;;;;;;11.55;4.60;;;;;;;-1.30;100.00;100333.45;1828854;76;27843;-76
2020/12/29 01:06:53;;;;;;;4.23;3.07;;;;;;;-1.32;100.00;100333.53;1815373;79;20945;-76
2020/12/29 01:09:23;;;;;;;4.83;2.03;;;;;;;-1.29;100.00;100331.16;1815406;79;21515;-75
2020/12/29 01:11:52;;;;;;;3.53;2.07;;;;;;;-1.29;100.00;100333.81;1815345;79;21541;-75
2020/12/29 01:14:21;;;;;;;3.20;2.03;;;;;;;-1.28;100.00;100349.65;1815227;79;20986;-75
2020/12/29 01:16:59;;;;;;;3.00;2.23;;;;;;;-1.24;100.00;100354.30;1814346;79;20942;-76
2020/12/29 01:19:27;;;;;;;3.33;1.87;;;;;;;-1.24;100.00;100341.04;1822596;78;21593;-76
2020/12/29 01:21:55;;;;;;;1.10;0.97;;;;;;;-1.26;100.00;100338.47;1835072;78;21354;-77
2020/12/29 01:24:22;;;;;;;1.77;1.50;;;;;;;-1.25;100.00;100331.39;1835018;78;21040;-77
2020/12/29 01:26:50;;;;;;;3.33;2.20;;;;;;;-1.24;100.00;100335.73;1835012;77;20929;-76
2020/12/29 01:29:17;;;;;;;3.57;2.77;;;;;;;-1.26;100.00;100341.61;1835112;78;21590;-76
2020/12/29 01:31:45;;;;;;;2.20;1.73;;;;;;;-1.27;100.00;100348.72;1835118;77;20973;-76
2020/12/29 01:34:13;;;;;;;2.27;2.00;;;;;;;-1.24;100.00;100356.51;1834901;78;22371;-77
2020/12/29 01:36:42;;;;;;;2.60;1.50;;;;;;;-1.24;100.00;100357.84;1834751;78;20945;-77
2020/12/29 01:39:09;;;;;;;1.70;1.57;;;;;;;-1.23;100.00;100350.23;1835117;77;21009;-77
2020/12/29 01:41:37;;;;;;;4.07;2.07;;;;;;;-1.22;100.00;100352.41;1835005;78;20985;-77
2020/12/29 01:44:18;;;;;;;2.53;2.20;;;;;;;-1.22;100.00;100332.06;1835148;77;21459;-76
2020/12/29 01:46:49;;;;;;;2.07;1.87;;;;;;;-1.22;100.00;100327.20;1835220;78;22055;-75
2020/12/29 01:49:17;;;;;;;2.10;1.60;;;;;;;-1.24;100.00;100322.02;1834907;78;21569;-76
2020/12/29 01:51:45;;;;;;;2.50;2.27;;;;;;;-1.23;100.00;100332.15;1835200;78;20989;-77
2020/12/29 01:54:13;;;;;;;2.30;1.83;;;;;;;-1.23;100.00;100344.94;1835107;77;20918;-77
2020/12/29 01:56:41;;;;;;;2.40;2.20;;;;;;;-1.21;100.00;100360.77;1835003;78;21193;-75
2020/12/29 01:59:14;;;;;;;2.60;2.20;;;;;;;-1.19;100.00;100358.44;1835100;78;21185;-76
2020/12/29 02:01:43;;;;;;;2.80;1.87;;;;;;;-1.18;100.00;100342.88;1835319;78;21082;-77
2020/12/29 02:04:12;;;;;;;3.50;1.83;;;;;;;-1.16;100.00;100313.59;1855961;77;21435;-76
2020/12/29 02:06:40;;;;;;;2.40;1.50;;;;;;;-1.15;100.00;100324.61;1861745;77;20981;-75
2020/12/29 02:09:09;;;;;;;2.37;2.10;;;;;;;-1.15;100.00;100330.77;1861706;77;20981;-76
2020/12/29 02:11:37;;;;;;;3.97;2.63;;;;;;;-1.12;100.00;100328.87;1847340;77;21547;-76
2020/12/29 02:14:06;;;;;;;3.17;1.90;;;;;;;-1.12;100.00;100319.10;1835750;78;20896;-76
2020/12/29 02:16:39;;;;;;;4.40;2.67;;;;;;;-1.13;100.00;100310.77;1822292;78;21353;-76
2020/12/29 02:19:07;;;;;;;2.37;2.17;;;;;;;-1.13;100.00;100317.41;1703278;84;21090;-77
2020/12/29 02:21:36;;;;;;;1.83;1.43;;;;;;;-1.13;100.00;100317.86;1671868;85;20979;-76
2020/12/29 02:24:05;;;;;;;3.47;2.50;;;;;;;-1.13;100.00;100304.14;1671824;85;21210;-74
2020/12/29 02:26:34;;;;;;;4.97;2.90;;;;;;;-1.12;100.00;100287.25;1671952;85;20991;-75
2020/12/29 02:29:04;;;;;;;2.43;2.20;;;;;;;-1.13;100.00;100272.30;1672000;85;21622;-77
2020/12/29 02:31:32;;;;;;;2.03;1.93;;;;;;;-1.16;100.00;100248.10;1671929;85;21011;-76
2020/12/29 02:34:00;;;;;;;2.33;2.13;;;;;;;-1.17;100.00;100237.13;1671825;85;21615;-75
2020/12/29 02:36:29;;;;;;;3.47;2.87;;;;;;;-1.16;100.00;100251.23;1672011;85;21193;-76
2020/12/29 02:38:57;;;;;;;4.50;2.27;;;;;;;-1.16;100.00;100262.70;1671871;85;21642;-75
2020/12/29 02:41:24;;;;;;;2.90;1.80;;;;;;;-1.18;100.00;100254.45;1671937;85;20979;-77
2020/12/29 02:43:52;;;;;;;2.57;2.37;;;;;;;-1.19;100.00;100239.47;1671877;85;21086;-76
2020/12/29 02:46:20;;;;;;;1.90;1.80;;;;;;;-1.19;100.00;100240.80;1671834;85;21022;-76
2020/12/29 02:48:47;;;;;;;3.73;2.70;;;;;;;-1.19;100.00;100225.75;1671929;84;21954;-76
2020/12/29 02:51:15;;;;;;;3.03;2.73;;;;;;;-1.22;100.00;100228.58;1720679;83;20977;-77
2020/12/29 02:53:43;;;;;;;3.30;2.03;;;;;;;-1.21;100.00;100244.02;1677774;85;21206;-75
2020/12/29 02:56:15;;;;;;;3.23;2.57;;;;;;;-1.20;100.00;100243.09;1725420;83;21546;-76
2020/12/29 02:58:43;;;;;;;2.10;1.90;;;;;;;-1.20;100.00;100242.61;1679999;84;20973;-76
2020/12/29 03:01:11;;;;;;;3.70;2.43;;;;;;;-1.17;100.00;100257.47;1705561;84;21639;-76
2020/12/29 03:03:39;;;;;;;4.53;3.23;;;;;;;-1.16;100.00;100269.81;1706691;84;21088;-75
2020/12/29 03:06:07;;;;;;;2.93;2.07;;;;;;;-1.15;100.00;100279.02;1690569;84;21606;-76
2020/12/29 03:08:35;;;;;;;5.90;2.97;;;;;;;-1.13;100.00;100273.63;1708368;84;21248;-76
2020/12/29 03:11:04;;;;;;;3.63;2.60;;;;;;;-1.10;100.00;100280.53;1683211;84;21511;-77
2020/12/29 03:13:33;;;;;;;4.80;2.73;;;;;;;-1.10;100.00;100296.45;1677202;85;21536;-76
2020/12/29 03:16:00;;;;;;;4.40;2.70;;;;;;;-1.09;100.00;100309.64;1697299;83;21061;-77
2020/12/29 03:18:28;;;;;;;3.77;2.67;;;;;;;-1.08;100.00;100304.73;1677300;85;21065;-75
2020/12/29 03:20:56;;;;;;;2.47;1.80;;;;;;;-1.07;100.00;100286.99;1697193;84;21092;-75
2020/12/29 03:23:24;;;;;;;3.73;2.27;;;;;;;-1.04;100.00;100293.45;1785054;80;21068;-77
2020/12/29 03:25:52;;;;;;;3.10;2.53;;;;;;;-1.02;100.00;100291.56;1762909;81;21240;-77
2020/12/29 03:28:19;;;;;;;4.10;2.73;;;;;;;-1.01;100.00;100292.80;1762909;81;21021;-75
2020/12/29 03:30:47;;;;;;;4.43;2.27;;;;;;;-0.99;100.00;100292.72;1762957;81;21581;-77
2020/12/29 03:33:15;;;;;;;2.97;1.63;;;;;;;-0.98;100.00;100285.11;1762928;81;21020;-75
2020/12/29 03:35:43;;;;;;;4.83;3.17;;;;;;;-0.97;100.00;100288.16;1762943;81;20922;-77
2020/12/29 03:38:11;;;;;;;5.10;2.57;;;;;;;-0.94;100.00;100281.80;1762947;81;21207;-76
2020/12/29 03:40:39;;;;;;;4.00;2.63;;;;;;;-0.94;100.00;100279.15;1762859;81;21020;-77
2020/12/29 03:43:12;;;;;;;3.07;2.60;;;;;;;-0.94;100.00;100273.36;1762880;81;21578;-75
2020/12/29 03:45:37;;;;;;;2.57;2.13;;;;;;;-0.94;100.00;100278.67;1759141;81;21065;-76
2020/12/29 03:48:08;;;;;;;3.93;2.30;;;;;;;-0.94;100.00;100272.03;1763060;81;20930;-78
2020/12/29 03:50:40;;;;;;;5.00;2.97;;;;;;;-0.93;100.00;100264.95;1762861;81;21209;-78
2020/12/29 03:53:08;;;;;;;3.10;1.90;;;;;;;-0.94;100.00;100247.30;1762841;81;21049;-76
2020/12/29 03:55:37;;;;;;;2.33;2.03;;;;;;;-0.94;100.00;100255.26;1762897;81;21028;-77
2020/12/29 03:58:05;;;;;;;2.80;2.07;;;;;;;-0.93;100.00;100259.64;1762949;81;20954;-77
2020/12/29 04:00:34;;;;;;;2.70;2.47;;;;;;;-0.91;100.00;100278.49;1763055;81;20985;-77
2020/12/29 04:03:04;;;;;;;4.10;2.67;;;;;;;-0.88;100.00;100268.18;1762880;80;22257;-76
2020/12/29 04:05:32;;;;;;;2.43;1.90;;;;;;;-0.89;100.00;100269.11;1762812;81;21479;-77
2020/12/29 04:08:01;;;;;;;2.33;1.83;;;;;;;-0.89;100.00;100269.95;1762956;81;21076;-77
2020/12/29 04:10:31;;;;;;;5.63;2.53;;;;;;;-0.90;100.00;100278.01;1766256;80;21005;-77
2020/12/29 04:13:00;;;;;;;6.03;2.87;;;;;;;-0.89;100.00;100288.55;1795951;80;21032;-77
2020/12/29 04:15:28;;;;;;;3.63;2.80;;;;;;;-0.86;100.00;100284.86;1828544;78;21192;-75
2020/12/29 04:17:56;;;;;;;2.63;2.23;;;;;;;-0.87;100.00;100271.20;1763756;80;21013;-75
2020/12/29 04:20:23;;;;;;;2.80;2.40;;;;;;;-0.86;100.00;100280.41;1762953;81;20898;-76
2020/12/29 04:22:52;;;;;;;3.83;2.30;;;;;;;-0.87;100.00;100280.48;1762897;81;20957;-78
2020/12/29 04:25:19;;;;;;;5.30;3.07;;;;;;;-0.85;100.00;100278.59;1762971;81;21065;-76
2020/12/29 04:27:47;;;;;;;2.80;2.53;;;;;;;-0.83;100.00;100280.70;1762920;81;21319;-76
2020/12/29 04:30:15;;;;;;;4.27;3.00;;;;;;;-0.83;100.00;100280.70;1762950;81;20989;-76
2020/12/29 04:32:43;;;;;;;4.13;3.27;;;;;;;-0.83;100.00;100286.02;1762920;81;20970;-77
2020/12/29 04:35:11;;;;;;;2.10;2.00;;;;;;;-0.82;100.00;100277.09;1762872;81;21570;-76
2020/12/29 04:37:38;;;;;;;4.63;2.93;;;;;;;-0.83;100.00;100274.91;1763022;81;20997;-75
2020/12/29 04:40:06;;;;;;;2.77;2.17;;;;;;;-0.83;100.00;100282.88;1762984;81;21333;-76
2020/12/29 04:42:35;;;;;;;4.30;3.37;;;;;;;-0.82;100.00;100292.53;1762779;81;21001;-76
2020/12/29 04:45:04;;;;;;;4.60;3.10;;;;;;;-0.81;100.00;100284.12;1762854;81;20958;-78
2020/12/29 04:47:32;;;;;;;2.77;2.00;;;;;;;-0.81;100.00;100270.36;1762633;81;21004;-75
2020/12/29 04:50:00;;;;;;;3.63;2.90;;;;;;;-0.82;100.00;100269.97;1733768;81;20950;-76
2020/12/29 04:52:28;;;;;;;2.27;1.93;;;;;;;-0.82;100.00;100267.31;1762970;81;22291;-76
2020/12/29 04:54:56;;;;;;;3.67;2.67;;;;;;;-0.81;100.00;100266.38;1762921;81;21025;-76
2020/12/29 04:57:24;;;;;;;3.17;2.53;;;;;;;-0.81;100.00;100269.03;1762946;81;20945;-76
2020/12/29 04:59:53;;;;;;;6.37;3.63;;;;;;;-0.80;100.00;100275.19;1762836;81;21020;-75
2020/12/29 05:02:21;;;;;;;3.57;2.43;;;;;;;-0.80;100.00;100284.48;1762837;81;20950;-77
2020/12/29 05:04:49;;;;;;;4.70;2.17;;;;;;;-0.82;100.00;100283.24;1752115;81;22470;-76
2020/12/29 05:07:17;;;;;;;4.37;2.90;;;;;;;-0.81;100.00;100280.98;1746502;82;21089;-75
2020/12/29 05:09:47;;;;;;;4.87;3.23;;;;;;;-0.78;100.00;100269.30;1746516;82;21061;-76
2020/12/29 05:12:17;;;;;;;5.57;3.40;;;;;;;-0.79;100.00;100267.62;1782108;80;21008;-77
2020/12/29 05:14:46;;;;;;;6.40;3.20;;;;;;;-0.79;100.00;100257.84;1804509;79;20942;-76
2020/12/29 05:17:15;;;;;;;6.20;3.67;;;;;;;-0.79;100.00;100269.79;1732680;80;21433;-76
2020/12/29 05:19:44;;;;;;;2.60;2.40;;;;;;;-0.79;100.00;100273.77;1742062;80;21516;-76
2020/12/29 05:22:12;;;;;;;5.63;3.47;;;;;;;-0.77;100.00;100283.82;1723208;80;21013;-76
2020/12/29 05:24:46;;;;;;;6.10;4.23;;;;;;;-0.77;100.00;100271.03;1752966;81;21776;-76
2020/12/29 05:27:14;;;;;;;5.78;3.77;;;;;;;-0.77;100.00;100271.88;1747532;80;21093;-76
2020/12/29 05:29:42;;;;;;;9.57;4.37;;;;;;;-0.75;100.00;100268.28;1747345;80;21318;-75
2020/12/29 05:32:17;;;;;;;5.73;3.57;;;;;;;-0.75;100.00;100269.61;1757370;81;21549;-77
2020/12/29 05:34:45;;;;;;;5.47;4.07;;;;;;;-0.75;100.00;100261.16;1771916;80;21500;-77
2020/12/29 05:37:15;;;;;;;4.87;3.93;;;;;;;-0.73;100.00;100264.58;1681109;81;21586;-76
2020/12/29 05:39:43;;;;;;;3.97;2.87;;;;;;;-0.75;100.00;100260.31;1771522;81;21046;-76
2020/12/29 05:42:11;;;;;;;4.37;3.30;;;;;;;-0.74;100.00;100259.35;1757209;81;21666;-77
2020/12/29 05:44:40;;;;;;;3.97;2.33;;;;;;;-0.73;100.00;100265.06;1777217;80;21232;-76
2020/12/29 05:47:07;;;;;;;6.87;3.40;;;;;;;-0.74;100.00;100263.34;1746213;80;20974;-76
2020/12/29 05:49:36;;;;;;;9.03;4.17;;;;;;;-0.73;100.00;100259.27;1701093;81;21590;-76
2020/12/29 05:52:04;;;;;;;3.83;2.73;;;;;;;-0.73;100.00;100260.59;1777334;80;21129;-77
2020/12/29 05:54:34;;;;;;;5.23;3.80;;;;;;;-0.72;100.00;100280.91;1722908;80;21285;-76
2020/12/29 05:57:02;;;;;;;3.67;3.17;;;;;;;-0.72;100.00;100284.88;1680392;81;21024;-76
2020/12/29 05:59:30;;;;;;;2.73;2.23;;;;;;;-0.73;100.00;100276.52;1777416;80;20990;-76
2020/12/29 06:01:59;;;;;;;4.30;3.50;;;;;;;-0.71;100.00;100287.90;1777456;80;21022;-77
2020/12/29 06:04:26;;;;;;;4.47;2.70;;;;;;;-0.70;100.00;100287.45;1757232;80;21577;-75
2020/12/29 06:06:54;;;;;;;3.40;3.10;;;;;;;-0.68;100.00;100292.19;1744112;81;21985;-78
2020/12/29 06:09:22;;;;;;;6.43;3.23;;;;;;;-0.65;100.00;100282.72;1667677;82;21198;-80
2020/12/29 06:11:54;;;;;;;4.10;2.43;;;;;;;-0.64;100.00;100273.78;1732447;82;20995;-78
2020/12/29 06:14:26;;;;;;;5.47;3.17;;;;;;;-0.63;100.00;100270.20;1735359;82;21521;-76
2020/12/29 06:16:55;;;;;;;4.67;2.55;;;;;;;-0.61;100.00;100270.47;1752583;81;21111;-75
2020/12/29 06:19:28;;;;;;;4.13;2.90;;;;;;;-0.61;100.00;100269.62;1755673;81;21199;-76
2020/12/29 06:22:12;;;;;;;;;;;;;;;-0.62;100.00;100291.80;1757892;81;21048;-77
2020/12/29 06:24:45;;;;;;;4.07;2.67;;;;;;;-0.65;100.00;100290.20;1766760;79;20489;-76
2020/12/29 06:27:13;;;;;;;5.80;2.80;;;;;;;-0.64;100.00;100285.73;1687057;84;21593;-76
2020/12/29 06:29:44;;;;;;;4.57;3.20;;;;;;;-0.64;100.00;100299.89;1693943;84;21625;-76
2020/12/29 06:32:19;;;;;;;4.37;2.57;;;;;;;-0.58;100.00;100288.88;1811022;77;27158;-76
2020/12/29 06:34:48;;;;;;;4.30;2.77;;;;;;;-0.62;100.00;100286.48;1772342;80;20962;-76
2020/12/29 06:37:37;;;;;;;4.90;2.60;;;;;;;-0.62;100.00;100272.77;1784344;80;21196;-76
2020/12/29 06:40:07;;;;;;;9.03;4.97;;;;;;;-0.63;100.00;100267.05;1784597;80;21049;-76
2020/12/29 06:42:42;;;;;;;4.33;2.83;;;;;;;-0.63;100.00;100271.04;1784646;80;21411;-76
2020/12/29 06:45:13;;;;;;;3.60;3.00;;;;;;;-0.62;100.00;100269.23;1783931;80;20946;-74
2020/12/29 06:47:46;;;;;;;4.13;3.37;;;;;;;-0.63;100.00;100263.55;1783423;80;20875;-74
2020/12/29 06:50:31;;;;;;;5.58;2.85;;;;;;;-0.62;100.00;100257.27;1782915;80;21191;-77
2020/12/29 06:53:04;;;;;;;11.37;5.63;;;;;;;-0.60;100.00;100264.22;1773914;80;21041;-77
2020/12/29 06:55:38;;;;;;;6.95;4.87;;;;;;;-0.55;100.00;100272.37;1773946;80;21060;-77
2020/12/29 06:58:07;;;;;;;6.40;4.47;;;;;;;-0.53;100.00;100274.00;1676709;84;21164;-74
2020/12/29 07:00:36;;;;;;;9.47;5.37;;;;;;;-0.51;100.00;100282.72;1674583;85;21201;-76
2020/12/29 07:03:04;;;;;;;6.57;4.17;;;;;;;-0.50;100.00;100280.91;1660859;86;22127;-75
2020/12/29 07:05:36;;;;;;;7.07;4.53;;;;;;;-0.49;100.00;100299.42;1675137;85;21124;-74
2020/12/29 07:08:08;;;;;;;7.05;4.67;;;;;;;-0.48;100.00;100302.47;1656446;85;21081;-76
2020/12/29 07:10:41;;;;;;;6.03;3.25;;;;;;;-0.46;100.00;100302.34;1658832;86;21962;-76
2020/12/29 07:13:18;;;;;;;8.13;4.35;;;;;;;-0.44;100.00;100293.35;1689976;85;21024;-78
2020/12/29 07:15:56;;;;;;;3.47;2.57;;;;;;;-0.43;100.00;100307.00;1683027;85;22770;-75
2020/12/29 07:18:25;;;;;;;6.70;3.43;;;;;;;-0.41;100.00;100321.06;1650410;85;21155;-79
2020/12/29 07:20:56;;;;;;;7.27;3.20;;;;;;;-0.38;100.00;100312.04;1677906;85;21057;-75
2020/12/29 07:23:30;;;;;;;5.77;3.77;;;;;;;-0.35;100.00;100299.91;1668219;86;21604;-79
2020/12/29 07:25:59;;;;;;;7.10;3.90;;;;;;;-0.34;100.00;100296.77;1667521;86;21760;-76
2020/12/29 07:28:30;;;;;;;7.60;3.67;;;;;;;-0.33;100.00;100298.48;1670438;86;22404;-76
2020/12/29 07:30:59;;;;;;;2.50;2.08;;;;;;;-0.33;100.00;100321.07;1668018;84;20997;-75
2020/12/29 07:33:26;;;;;;;4.93;3.30;;;;;;;-0.31;100.00;100316.02;1650683;87;21085;-79
2020/12/29 07:35:54;;;;;;;8.03;5.10;;;;;;;-0.27;100.00;100313.55;1662819;85;21044;-74
2020/12/29 07:38:25;;;;;;;6.97;3.83;;;;;;;-0.24;100.00;100312.52;1650991;87;21187;-74
2020/12/29 07:40:53;;;;;;;4.17;3.17;;;;;;;-0.22;100.00;100300.83;1658004;85;22086;-74
2020/12/29 07:43:21;;;;;;;5.53;3.67;;;;;;;-0.21;100.00;100299.89;1650100;87;21578;-74
2020/12/29 07:45:49;;;;;;;5.83;3.40;;;;;;;-0.20;100.00;100302.06;1650444;87;21053;-74
2020/12/29 07:48:17;;;;;;;5.73;4.43;;;;;;;-0.19;100.00;100305.12;1652227;85;21085;-74
2020/12/29 07:50:46;;;;;;;10.13;5.23;;;;;;;-0.17;100.00;100314.33;1623386;87;21073;-72
2020/12/29 07:53:14;;;;;;;4.73;3.40;;;;;;;-0.16;100.00;100316.02;1676412;85;21298;-74
2020/12/29 07:55:43;;;;;;;5.13;3.37;;;;;;;-0.12;100.00;100314.90;1724497;82;21047;-73
2020/12/29 07:58:10;;;;;;;3.43;2.30;;;;;;;-0.10;100.00;100315.66;1743212;82;20992;-73
2020/12/29 08:00:39;;;;;;;6.83;3.90;;;;;;;-0.06;100.00;100319.33;1742289;82;21636;-74
2020/12/29 08:03:09;;;;;;;13.80;5.27;;;;;;;-0.05;100.00;100314.41;1743094;82;20933;-75
2020/12/29 08:05:43;;;;;;;4.80;3.43;;;;;;;-0.04;100.00;100309.45;1743359;82;21738;-75
2020/12/29 08:08:12;;;;;;;4.93;3.80;;;;;;;-0.05;100.00;100303.77;1742872;81;21506;-74
2020/12/29 08:10:42;;;;;;;8.13;5.07;;;;;;;-0.03;100.00;100314.31;1718231;82;21519;-74
2020/12/29 08:13:16;;;;;;;2.53;2.27;;;;;;;-0.02;100.00;100307.58;1713639;83;21063;-70
2020/12/29 08:15:44;;;;;;;5.40;3.53;;;;;;;0.03;100.00;100303.28;1712615;81;21028;-71
2020/12/29 08:18:17;;;;;;;5.17;2.77;;;;;;;0.07;100.00;100307.47;1728205;82;21508;-72
2020/12/29 08:21:00;;;;;;;3.95;2.77;;;;;;;0.09;100.00;100312.22;1742054;82;20992;-72
2020/12/29 08:23:28;;;;;;;5.45;2.47;;;;;;;0.11;100.00;100312.13;1743016;82;21043;-72
2020/12/29 08:25:58;;;;;;;5.73;2.63;;;;;;;0.11;100.00;100325.41;1742810;82;20981;-72
2020/12/29 08:28:27;;;;;;;11.33;5.63;;;;;;;0.12;100.00;100317.80;1742895;82;21063;-73
2020/12/29 08:30:56;;;;;;;5.77;3.60;;;;;;;0.12;100.00;100311.99;1749840;80;21372;-73
2020/12/29 08:33:25;;;;;;;7.13;4.03;;;;;;;0.13;100.00;100296.43;1782140;80;21033;-73
2020/12/29 08:38:45;;;;;;;8.57;3.93;;;;;;;0.15;100.00;100275.06;1822616;76;27307;-73
2020/12/29 08:41:20;;;;;;;7.53;3.63;;;;;;;0.09;100.00;100272.78;1815491;79;21077;-72
2020/12/29 08:43:50;;;;;;;2.67;2.47;;;;;;;0.05;100.00;100280.09;1812332;79;22942;-72
2020/12/29 08:46:21;;;;;;;3.37;2.37;;;;;;;0.04;100.00;100285.06;1815342;79;21023;-71
2020/12/29 08:48:59;;;;;;;4.00;2.83;;;;;;;0.04;100.00;100297.02;1813163;79;21000;-72
2020/12/29 08:51:45;;;;;;;4.97;3.33;;;;;;;0.06;100.00;100299.11;1783110;79;21717;-73
2020/12/29 08:54:15;;;;;;;4.07;3.00;;;;;;;0.09;100.00;100299.38;1781607;80;20984;-71
2020/12/29 08:56:43;;;;;;;8.73;3.60;;;;;;;0.10;100.00;100295.77;1782974;79;21135;-72
2020/12/29 08:59:20;;;;;;;4.00;2.83;;;;;;;0.13;100.00;100299.09;1789831;79;21000;-73
2020/12/29 09:01:56;;;;;;;6.23;3.83;;;;;;;0.17;100.00;100285.12;1815227;77;21035;-70
2020/12/29 09:04:33;;;;;;;6.70;3.47;;;;;;;0.23;100.00;100283.41;1815368;77;20980;-71
2020/12/29 09:07:08;;;;;;;3.77;2.20;;;;;;;0.25;100.00;100279.30;1814348;79;21711;-71
2020/12/29 09:09:55;;;;;;;7.93;3.37;;;;;;;0.24;100.00;100277.61;1814992;79;22322;-72
2020/12/29 09:12:34;;;;;;;5.33;2.70;;;;;;;0.24;100.00;100283.77;1814575;79;21648;-71
2020/12/29 09:15:07;;;;;;;5.80;3.73;;;;;;;0.23;100.00;100275.44;1812672;79;21309;-70
2020/12/29 09:17:40;;;;;;;6.42;3.20;;;;;;;0.23;100.00;100266.12;1799061;79;21216;-71
2020/12/29 09:20:23;;;;;;;4.60;3.27;;;;;;;0.27;100.00;100266.30;1835377;76;26826;-71
2020/12/29 09:23:09;;;;;;;6.87;3.37;;;;;;;0.25;100.00;100266.88;1796378;79;21066;-72
2020/12/29 09:25:43;;;;;;;6.30;2.87;;;;;;;0.31;100.00;100270.45;1794047;79;21191;-75
2020/12/29 09:28:24;;;;;;;6.30;4.00;;;;;;;0.39;100.00;100260.66;1693382;84;21071;-73
2020/12/29 09:31:04;;;;;;;3.63;2.97;;;;;;;0.49;100.00;100243.59;1926840;74;26967;-71
2020/12/29 09:33:33;;;;;;;3.73;2.67;;;;;;;0.48;100.00;100256.52;1808856;79;20981;-72
2020/12/29 09:36:04;;;;;;;3.37;2.50;;;;;;;0.48;100.00;100255.18;1892112;75;21356;-72
2020/12/29 09:38:33;;;;;;;3.77;2.80;;;;;;;0.46;100.00;100239.34;1904056;75;20988;-72
2020/12/29 09:41:02;;;;;;;5.97;2.97;;;;;;;0.42;100.00;100251.61;1904363;75;20924;-72
2020/12/29 09:43:31;;;;;;;4.20;2.87;;;;;;;0.40;100.00;100247.72;1903776;75;20928;-71
2020/12/29 09:46:00;;;;;;;3.50;2.90;;;;;;;0.40;100.00;100247.72;1851633;77;21057;-71
2020/12/29 09:48:28;;;;;;;4.20;2.47;;;;;;;0.42;100.00;100247.63;1864156;76;21608;-71
2020/12/29 09:50:56;;;;;;;3.60;2.77;;;;;;;0.41;100.00;100238.80;1875905;75;21609;-71
2020/12/29 09:53:26;;;;;;;4.40;2.80;;;;;;;0.42;100.00;100243.63;1851657;76;21585;-72
2020/12/29 09:55:54;;;;;;;4.57;2.67;;;;;;;0.43;100.00;100236.87;1851646;77;21012;-77
2020/12/29 09:58:23;;;;;;;4.23;2.03;;;;;;;0.46;100.00;100246.00;1851538;77;21009;-72
2020/12/29 10:00:51;;;;;;;4.03;3.03;;;;;;;0.48;100.00;100258.72;1851578;77;21615;-71
2020/12/29 10:03:19;;;;;;;5.17;3.40;;;;;;;0.52;100.00;100270.86;1851592;76;21636;-71
2020/12/29 10:05:49;;;;;;;6.07;3.73;;;;;;;0.56;100.00;100272.84;1851381;77;20969;-71
2020/12/29 10:08:16;;;;;;;5.67;3.07;;;;;;;0.59;100.00;100265.14;1853687;76;20962;-72
2020/12/29 10:10:44;;;;;;;5.80;3.27;;;;;;;0.59;100.00;100265.98;1854163;77;21551;-70
2020/12/29 10:13:12;;;;;;;4.60;2.80;;;;;;;0.62;100.00;100258.27;1854171;76;21153;-72
2020/12/29 10:15:40;;;;;;;6.60;3.93;;;;;;;0.61;100.00;100247.27;1866558;75;21538;-72
2020/12/29 10:18:08;;;;;;;6.70;3.10;;;;;;;0.63;100.00;100253.33;1854947;76;21556;-72
2020/12/29 10:20:36;;;;;;;6.77;3.53;;;;;;;0.65;100.00;100247.42;1852729;76;21096;-71
2020/12/29 10:23:03;;;;;;;5.57;3.70;;;;;;;0.66;100.00;100235.34;1804977;79;21021;-71
2020/12/29 10:25:34;;;;;;;6.00;3.60;;;;;;;0.68;100.00;100223.27;1855812;76;21719;-71
2020/12/29 10:28:02;;;;;;;7.03;3.80;;;;;;;0.71;100.00;100220.41;1852786;76;21001;-74
2020/12/29 10:30:29;;;;;;;5.10;3.37;;;;;;;0.72;100.00;100220.28;1851360;77;20983;-73
2020/12/29 10:32:57;;;;;;;4.37;2.93;;;;;;;0.74;100.00;100218.39;1851491;77;21000;-73
2020/12/29 10:35:25;;;;;;;5.73;3.17;;;;;;;0.74;100.00;100227.72;1855081;76;21175;-73
2020/12/29 10:37:54;;;;;;;6.10;2.67;;;;;;;0.78;100.00;100220.83;1856589;76;21359;-74
2020/12/29 10:40:22;;;;;;;3.27;2.47;;;;;;;0.81;100.00;100224.63;1849841;76;21008;-72
2020/12/29 10:42:50;;;;;;;6.07;3.43;;;;;;;0.84;100.00;100227.08;1852766;76;21014;-74
2020/12/29 10:45:19;;;;;;;4.30;2.20;;;;;;;0.87;100.00;100230.39;1851095;77;20979;-73
2020/12/29 10:47:47;;;;;;;4.53;3.10;;;;;;;0.94;100.00;100234.83;1857393;76;21632;-71
2020/12/29 10:50:15;;;;;;;3.33;3.03;;;;;;;0.97;100.00;100246.58;1852619;76;21631;-72
2020/12/29 10:52:43;;;;;;;4.60;3.23;;;;;;;0.97;100.00;100250.56;1853895;76;21071;-70
2020/12/29 10:55:10;;;;;;;6.33;3.03;;;;;;;0.99;100.00;100242.48;1846156;76;20989;-70
2020/12/29 10:57:40;;;;;;;3.87;2.87;;;;;;;1.03;100.00;100252.83;1873126;76;21450;-70
2020/12/29 11:00:10;;;;;;;4.27;2.10;;;;;;;1.04;100.00;100243.86;1883222;76;20965;-71
2020/12/29 11:02:39;;;;;;;2.33;1.83;;;;;;;1.08;100.00;100253.38;1885744;76;22585;-76
2020/12/29 11:05:06;;;;;;;6.83;3.57;;;;;;;1.11;100.00;100240.31;1885763;76;21546;-71
2020/12/29 11:07:34;;;;;;;7.80;4.10;;;;;;;1.11;100.00;100233.16;1873011;76;21025;-71
2020/12/29 11:10:03;;;;;;;4.80;2.87;;;;;;;1.13;100.00;100230.39;1851058;76;21082;-72
2020/12/29 11:12:31;;;;;;;2.97;2.60;;;;;;;1.18;100.00;100244.74;1856239;77;21072;-71
2020/12/29 11:14:59;;;;;;;4.97;3.43;;;;;;;1.18;100.00;100237.59;1856440;77;21190;-72
2020/12/29 11:17:27;;;;;;;4.63;2.47;;;;;;;1.18;100.00;100223.43;1852420;75;20889;-74
2020/12/29 11:19:56;;;;;;;7.50;3.67;;;;;;;1.20;100.00;100217.52;1850870;77;20983;-71
2020/12/29 11:22:24;;;;;;;5.40;3.73;;;;;;;1.20;100.00;100226.34;1850961;77;21089;-71
2020/12/29 11:24:52;;;;;;;5.87;3.07;;;;;;;1.18;100.00;100222.95;1850719;77;21031;-70
2020/12/29 11:27:20;;;;;;;3.83;2.57;;;;;;;1.13;100.00;100219.29;1850559;77;21192;-71
2020/12/29 11:29:47;;;;;;;3.10;2.53;;;;;;;1.14;100.00;100215.64;1847215;77;20988;-71
2020/12/29 11:32:15;;;;;;;6.17;3.20;;;;;;;1.15;100.00;100209.83;1837560;78;20988;-71
2020/12/29 11:34:43;;;;;;;5.60;2.93;;;;;;;1.18;100.00;100222.10;1837548;76;21000;-72